Time;durP1;ratioP1;P1;durP2;ratioP2;P2;SDS_P1;SDS_P2;PMS_P1;PMS_P2;Temp;Humidity;BMP_temperature;BMP_pressure;BME280_temperature;BME280_humidity;BME280_pressure;Samples;Min_cycle;Max_cycle;Signal;HPM_P1;HPM_P2
2023/10/14 00:02:06;;;;;;;8.70;7.90;;;;;;;20.38;73.43;99183.81;6019494;23;20460;-72
2023/10/14 00:04:33;;;;;;;7.78;7.15;;;;;;;20.55;73.98;99204.97;6049231;23;20037;-73
2023/10/14 00:07:09;;;;;;;7.70;7.00;;;;;;;20.49;74.75;99233.19;6048846;23;20031;-72
2023/10/14 00:09:46;;;;;;;7.95;7.13;;;;;;;20.21;74.28;99166.31;6007265;23;20089;-74
2023/10/14 00:12:15;;;;;;;8.18;7.38;;;;;;;20.02;75.38;99164.97;6024660;23;20265;-73
2023/10/14 00:14:45;;;;;;;7.47;6.90;;;;;;;20.32;77.54;99265.28;6052380;23;20387;-73
2023/10/14 00:17:18;;;;;;;8.07;7.25;;;;;;;20.31;80.41;99343.56;6024723;23;20019;-73
2023/10/14 00:19:49;;;;;;;8.23;7.57;;;;;;;20.09;84.06;99398.47;6051983;23;20047;-73
2023/10/14 00:22:18;;;;;;;10.40;7.85;;;;;;;19.47;89.73;99377.03;6057488;23;20096;-73
2023/10/14 00:24:48;;;;;;;13.48;7.45;;;;;;;19.68;94.26;99430.50;6052729;23;20084;-73
2023/10/14 00:27:17;;;;;;;8.48;7.68;;;;;;;19.93;94.90;99441.13;6028949;23;20172;-73
2023/10/14 00:29:43;;;;;;;7.80;7.10;;;;;;;19.17;98.20;99387.38;6034753;23;20065;-74
2023/10/14 00:32:10;;;;;;;11.85;7.80;;;;;;;19.17;100.00;99395.34;6027375;23;20615;-73
2023/10/14 00:34:36;;;;;;;13.75;7.43;;;;;;;19.52;100.00;99428.72;6059835;23;20030;-73
2023/10/14 00:37:07;;;;;;;8.18;7.38;;;;;;;18.58;100.00;99310.41;6030203;23;20089;-73
2023/10/14 00:39:34;;;;;;;8.13;7.38;;;;;;;19.12;100.00;99409.16;6056223;23;20359;-73
2023/10/14 00:42:01;;;;;;;7.05;6.53;;;;;;;19.00;100.00;99406.97;6054534;23;20026;-74
2023/10/14 00:44:28;;;;;;;8.20;7.50;;;;;;;19.16;100.00;99435.41;6009177;23;20115;-73
2023/10/14 00:46:55;;;;;;;8.38;7.35;;;;;;;18.92;100.00;99386.53;6051436;23;20445;-73
2023/10/14 00:49:31;;;;;;;8.25;7.43;;;;;;;19.09;100.00;99419.28;6059681;23;20452;-74
2023/10/14 00:52:00;;;;;;;8.55;7.28;;;;;;;19.02;100.00;99411.13;6047016;23;20030;-73
2023/10/14 00:54:47;;;;;;;7.30;6.80;;;;;;;18.85;100.00;99369.59;6053499;23;20055;-73
2023/10/14 00:59:49;;;;;;;11.25;7.60;;;;;;;18.92;100.00;99328.06;6058767;23;20030;-73
2023/10/14 01:02:26;;;;;;;9.40;6.50;;;;;;;19.07;100.00;99368.94;6047302;23;20110;-74
2023/10/14 01:04:53;;;;;;;7.65;7.05;;;;;;;19.01;100.00;99327.06;6042091;23;20259;-74
2023/10/14 01:07:21;;;;;;;7.43;6.72;;;;;;;19.05;100.00;99354.97;6056395;23;20060;-74
2023/10/14 01:14:44;;;;;;;10.10;6.68;;;;;;;18.69;100.00;99317.25;6050095;23;20042;-74
2023/10/14 01:17:25;;;;;;;8.82;6.15;;;;;;;18.53;99.85;99304.78;6050854;23;20054;-74
2023/10/14 01:19:53;;;;;;;7.35;6.75;;;;;;;19.10;97.75;99331.38;6049329;23;20033;-73
2023/10/14 01:22:19;;;;;;;6.35;5.75;;;;;;;18.90;97.61;99335.38;6056747;23;20321;-73
2023/10/14 01:24:46;;;;;;;7.00;6.10;;;;;;;18.55;96.28;99247.00;6020784;23;20034;-73
2023/10/14 01:27:13;;;;;;;7.68;6.13;;;;;;;18.85;96.82;99308.47;6051322;23;20591;-73
2023/10/14 01:29:40;;;;;;;6.57;6.07;;;;;;;18.56;97.76;99288.50;6052200;23;20093;-74
2023/10/14 01:32:42;;;;;;;7.82;6.63;;;;;;;18.81;99.37;99373.59;6028463;23;20243;-73
2023/10/14 01:37:55;;;;;;;7.32;6.57;;;;;;;18.90;100.00;99412.47;6052826;23;20026;-74
2023/10/14 01:42:56;;;;;;;5.95;5.45;;;;;;;18.38;100.00;99380.81;6025375;23;20058;-73
2023/10/14 01:45:28;;;;;;;6.40;5.38;;;;;;;18.60;100.00;99424.50;6058145;23;20038;-74
2023/10/14 01:48:11;;;;;;;10.02;6.72;;;;;;;18.33;100.00;99374.16;6060570;23;20026;-73
2023/10/14 01:50:46;;;;;;;6.47;5.88;;;;;;;18.10;100.00;99360.66;6029766;23;20080;-73
2023/10/14 01:53:27;;;;;;;5.95;5.40;;;;;;;18.66;100.00;99447.78;6031750;23;20076;-73
2023/10/14 01:55:58;;;;;;;6.60;6.05;;;;;;;18.57;100.00;99464.72;6050646;23;20012;-74
2023/10/14 02:01:11;;;;;;;5.60;5.25;;;;;;;18.49;100.00;99492.09;6031298;23;20474;-73
2023/10/14 02:03:50;;;;;;;5.93;5.53;;;;;;;18.46;100.00;99508.34;6052498;23;20041;-75
2023/10/14 02:06:20;;;;;;;6.05;5.50;;;;;;;18.42;100.00;99537.06;6000569;23;20262;-74
2023/10/14 02:08:51;;;;;;;5.35;5.05;;;;;;;18.37;100.00;99576.53;6053235;23;20499;-73
2023/10/14 02:11:21;;;;;;;5.07;4.88;;;;;;;17.73;100.00;99480.38;5997525;23;20034;-73
2023/10/14 02:13:51;;;;;;;5.82;5.53;;;;;;;17.34;100.00;99420.63;6057357;23;20026;-73
2023/10/14 02:16:41;;;;;;;4.65;4.45;;;;;;;17.54;100.00;99466.34;6049311;23;20017;-73
2023/10/14 02:22:01;;;;;;;5.68;5.38;;;;;;;16.23;100.00;99377.69;6043481;23;20031;-73
2023/10/14 02:24:28;;;;;;;4.70;4.50;;;;;;;16.45;100.00;99457.69;6023011;23;20089;-74
2023/10/14 02:27:06;;;;;;;4.70;4.50;;;;;;;16.63;100.00;99526.59;6050421;23;20030;-73
2023/10/14 02:29:33;;;;;;;5.00;4.60;;;;;;;16.11;100.00;99471.50;6045695;23;20182;-73
2023/10/14 02:32:00;;;;;;;4.47;4.28;;;;;;;15.85;100.00;99458.94;6054538;23;20042;-74
2023/10/14 02:34:27;;;;;;;4.50;4.30;;;;;;;16.64;100.00;99586.56;6051337;23;20097;-74
2023/10/14 02:36:54;;;;;;;4.50;4.30;;;;;;;16.61;100.00;99576.22;6024393;23;20086;-74
2023/10/14 02:39:27;;;;;;;4.55;4.35;;;;;;;16.11;100.00;99519.97;6054786;23;20045;-74
2023/10/14 02:42:15;;;;;;;5.93;5.63;;;;;;;16.58;100.00;99616.25;6042318;23;20038;-74
2023/10/14 02:45:14;;;;;;;4.60;4.40;;;;;;;16.64;100.00;99624.47;6052688;23;20395;-73
2023/10/14 02:47:37;;;;;;;4.70;4.50;;;;;;;16.65;100.00;99644.66;6020230;23;20275;-73
2023/10/14 02:50:13;;;;;;;4.50;4.30;;;;;;;16.62;100.00;99622.91;6057870;23;20075;-74
2023/10/14 02:52:40;;;;;;;4.47;4.28;;;;;;;16.91;100.00;99670.53;6049344;23;20050;-74
2023/10/14 02:55:22;;;;;;;4.47;4.28;;;;;;;16.92;100.00;99667.75;6053692;23;20043;-73
2023/10/14 02:57:49;;;;;;;5.43;5.10;;;;;;;16.80;100.00;99646.84;6044313;23;20092;-74
2023/10/14 03:00:23;;;;;;;4.50;4.30;;;;;;;16.89;100.00;99652.13;6056917;23;20478;-74
2023/10/14 03:03:02;;;;;;;4.50;4.30;;;;;;;16.95;100.00;99640.09;6051951;23;20113;-74
2023/10/14 03:08:18;;;;;;;4.43;4.22;;;;;;;16.78;100.00;99639.06;6047942;23;20114;-74
2023/10/14 03:11:16;;;;;;;4.80;4.60;;;;;;;16.98;100.00;99684.88;6026448;23;20478;-73
2023/10/14 03:13:32;;;;;;;4.70;4.50;;;;;;;16.59;100.00;99642.59;6042874;23;20026;-73
2023/10/14 03:16:00;;;;;;;4.80;4.50;;;;;;;17.01;100.00;99724.34;6053246;23;20054;-73
2023/10/14 03:18:39;;;;;;;4.78;4.57;;;;;;;17.06;100.00;99722.09;6042915;23;20041;-73
2023/10/14 03:21:09;;;;;;;4.60;4.40;;;;;;;16.23;100.00;99631.81;6036814;23;20455;-73
2023/10/14 03:23:38;;;;;;;4.60;4.40;;;;;;;16.30;100.00;99690.34;6048839;23;20061;-73
2023/10/14 03:26:14;;;;;;;4.55;4.15;;;;;;;16.20;100.00;99711.53;6021007;23;20026;-72
2023/10/14 03:28:50;;;;;;;4.72;4.53;;;;;;;15.40;100.00;99622.66;6051258;23;20355;-74
2023/10/14 03:31:19;;;;;;;4.90;4.50;;;;;;;15.53;100.00;99663.69;6045022;23;20091;-73
2023/10/14 03:33:46;;;;;;;5.40;5.20;;;;;;;15.52;100.00;99717.59;6059659;23;20033;-73
2023/10/14 03:36:16;;;;;;;4.40;4.20;;;;;;;15.66;100.00;99769.25;6047890;23;20453;-72
2023/10/14 03:38:47;;;;;;;4.70;4.50;;;;;;;15.68;100.00;99755.91;6036033;23;20038;-73
2023/10/14 03:41:21;;;;;;;4.55;4.35;;;;;;;15.54;100.00;99768.53;6053170;23;20159;-73
2023/10/14 03:46:24;;;;;;;6.18;4.75;;;;;;;15.27;100.00;99770.94;6055450;23;20022;-73
2023/10/14 03:48:54;;;;;;;7.15;4.40;;;;;;;14.81;100.00;99693.81;6031651;23;20046;-73
2023/10/14 03:51:24;;;;;;;6.22;5.38;;;;;;;14.85;100.00;99689.94;6048161;23;20088;-73
2023/10/14 03:53:52;;;;;;;5.43;5.18;;;;;;;14.90;100.00;99714.16;6029824;23;20352;-73
2023/10/14 03:56:21;;;;;;;4.70;4.50;;;;;;;14.86;100.00;99733.91;6056212;23;20028;-73
2023/10/14 03:58:55;;;;;;;7.00;4.70;;;;;;;14.51;100.00;99686.69;6054262;23;20261;-73
2023/10/14 04:01:33;;;;;;;5.43;4.60;;;;;;;14.07;100.00;99620.00;6019807;23;20027;-73
2023/10/14 04:04:14;;;;;;;4.50;4.30;;;;;;;14.40;100.00;99657.75;6019914;23;20034;-74
2023/10/14 04:06:42;;;;;;;7.53;4.75;;;;;;;14.85;100.00;99734.03;6018821;23;20171;-73
2023/10/14 04:09:10;;;;;;;4.70;4.50;;;;;;;14.89;100.00;99740.72;6026396;23;20089;-74
2023/10/14 04:11:39;;;;;;;11.57;4.70;;;;;;;14.50;98.99;99662.09;6028002;23;20030;-73
2023/10/14 04:14:29;;;;;;;18.17;16.90;;;;;;;14.43;98.46;99631.06;5893840;23;20130;-72
2023/10/14 04:22:38;;;;;;;4.70;4.40;;;;;;;14.19;99.14;99629.53;6011386;23;20331;-73
2023/10/14 04:27:45;;;;;;;5.25;4.53;;;;;;;14.99;99.88;99781.22;5999642;23;20278;-72
2023/10/14 04:30:20;;;;;;;4.40;4.20;;;;;;;15.30;100.00;99839.41;6018334;23;20500;-73
2023/10/14 04:32:57;;;;;;;8.43;4.90;;;;;;;14.82;99.15;99755.44;6004045;23;20019;-73
2023/10/14 04:35:24;;;;;;;6.65;4.40;;;;;;;14.91;99.47;99773.13;6023092;23;20035;-74
2023/10/14 04:37:52;;;;;;;5.22;5.03;;;;;;;15.28;99.13;99826.31;6019891;23;20041;-73
2023/10/14 04:48:50;;;;;;;7.43;4.50;;;;;;;14.63;98.04;99750.84;6019612;23;20026;-72
2023/10/14 04:51:19;;;;;;;4.50;4.30;;;;;;;15.37;98.24;99880.19;5998742;23;20019;-73
2023/10/14 04:53:46;;;;;;;7.05;6.55;;;;;;;15.27;97.36;99852.88;6015736;23;20254;-73
2023/10/14 04:56:29;;;;;;;4.47;4.28;;;;;;;14.72;96.96;99758.00;5998847;23;20438;-73
2023/10/14 04:58:56;;;;;;;4.60;4.40;;;;;;;14.97;96.75;99817.50;6029040;23;20122;-73
2023/10/14 05:01:27;;;;;;;4.80;4.50;;;;;;;14.64;97.28;99808.81;6038980;23;20042;-72
2023/10/14 05:03:57;;;;;;;5.68;5.38;;;;;;;14.87;97.62;99862.34;6031081;23;20027;-72
2023/10/14 05:06:29;;;;;;;4.68;4.38;;;;;;;14.08;97.75;99757.09;6042467;23;20022;-73
2023/10/14 05:08:57;;;;;;;4.82;4.60;;;;;;;14.71;98.36;99885.72;6029849;23;20082;-73
2023/10/14 05:11:25;;;;;;;4.30;4.10;;;;;;;14.66;99.71;99912.53;6054852;23;20082;-73
2023/10/14 05:14:08;;;;;;;5.38;5.13;;;;;;;14.45;99.37;99908.94;6042750;23;20042;-73
2023/10/14 05:16:53;;;;;;;5.55;4.50;;;;;;;14.50;99.67;99939.31;6049925;23;20464;-73
2023/10/14 05:19:24;;;;;;;4.60;4.30;;;;;;;14.29;100.00;99947.16;6027146;23;20421;-73
2023/10/14 05:22:04;;;;;;;5.25;5.05;;;;;;;13.70;100.00;99898.16;6029471;23;20135;-73
2023/10/14 05:24:31;;;;;;;4.50;4.30;;;;;;;14.25;100.00;99990.59;6048624;23;20473;-73
2023/10/14 05:27:01;;;;;;;4.47;4.25;;;;;;;14.14;100.00;99998.50;6053089;23;20026;-73
2023/10/14 05:29:28;;;;;;;4.72;4.40;;;;;;;13.69;100.00;99970.31;6031489;23;20418;-72
2023/10/14 05:32:15;;;;;;;5.72;5.38;;;;;;;13.99;100.00;100024.28;6047027;23;20100;-74
2023/10/14 05:34:45;;;;;;;4.70;4.40;;;;;;;13.95;100.00;100022.81;6049490;23;20018;-72
2023/10/14 05:37:12;;;;;;;5.15;4.50;;;;;;;13.86;100.00;100042.84;6058600;23;20512;-72
2023/10/14 05:39:41;;;;;;;4.40;4.07;;;;;;;13.79;100.00;100032.88;6022752;23;20441;-72
2023/10/14 05:42:21;;;;;;;5.05;4.72;;;;;;;13.83;100.00;100072.13;6051140;23;20090;-74
2023/10/14 05:44:57;;;;;;;4.65;4.45;;;;;;;13.71;100.00;100036.97;6042767;23;20039;-72
2023/10/14 05:47:27;;;;;;;4.80;4.25;;;;;;;13.52;100.00;100002.38;6046782;23;20026;-75
2023/10/14 05:49:54;;;;;;;5.72;5.38;;;;;;;13.78;100.00;100013.59;6050268;23;20560;-72
2023/10/14 05:52:24;;;;;;;8.45;4.40;;;;;;;13.33;100.00;99948.44;6055233;23;20037;-73
2023/10/14 05:54:51;;;;;;;11.40;4.32;;;;;;;13.69;100.00;99993.19;6039366;23;20093;-75
2023/10/14 05:57:18;;;;;;;5.00;4.50;;;;;;;12.74;100.00;99856.28;6048086;23;20026;-74
2023/10/14 05:59:48;;;;;;;5.75;5.45;;;;;;;13.30;100.00;100011.91;6044359;23;20034;-73
2023/10/14 06:02:15;;;;;;;4.38;4.07;;;;;;;13.50;100.00;100049.94;6029749;23;20293;-73
2023/10/14 06:04:41;;;;;;;6.85;4.80;;;;;;;12.92;100.00;99978.66;6060823;23;20022;-73
2023/10/14 06:07:11;;;;;;;4.90;4.60;;;;;;;13.50;100.00;100062.28;6061926;23;20088;-73
2023/10/14 06:09:39;;;;;;;5.50;4.80;;;;;;;13.45;100.00;100065.28;6043518;23;20034;-72
2023/10/14 06:12:12;;;;;;;4.40;4.20;;;;;;;13.56;100.00;100038.09;6056510;23;20022;-74
2023/10/14 06:14:39;;;;;;;5.18;4.45;;;;;;;13.34;100.00;100033.59;6022346;23;20057;-75
2023/10/14 06:17:07;;;;;;;4.50;4.30;;;;;;;13.43;100.00;100068.97;6029551;23;20023;-75
2023/10/14 06:19:36;;;;;;;4.50;4.30;;;;;;;13.45;100.00;100057.38;6023191;23;20034;-72
2023/10/14 06:22:03;;;;;;;10.02;5.25;;;;;;;13.05;100.00;100012.00;6044004;23;20056;-74
2023/10/14 06:24:29;;;;;;;4.40;4.20;;;;;;;13.40;100.00;100082.38;6021229;23;20061;-74
2023/10/14 06:27:07;;;;;;;5.20;4.75;;;;;;;13.15;100.00;100042.00;6042914;23;20539;-73
2023/10/14 06:29:35;;;;;;;7.57;4.65;;;;;;;13.54;100.00;100114.66;6048488;23;20334;-73
2023/10/14 06:32:02;;;;;;;4.65;4.45;;;;;;;13.22;100.00;100071.38;6017065;23;20172;-72
2023/10/14 06:34:47;;;;;;;4.68;4.38;;;;;;;13.49;100.00;100116.81;6053056;23;20059;-73
2023/10/14 06:37:16;;;;;;;4.47;4.28;;;;;;;13.15;100.00;100050.75;6050321;23;20019;-73
2023/10/14 06:39:43;;;;;;;5.70;5.25;;;;;;;13.55;100.00;100118.13;6046949;23;20026;-74
2023/10/14 06:42:11;;;;;;;4.45;4.25;;;;;;;13.18;100.00;100054.94;6021866;23;20049;-74
2023/10/14 06:44:45;;;;;;;4.35;4.15;;;;;;;13.38;99.38;100098.31;6048565;23;20072;-73
2023/10/14 06:47:11;;;;;;;5.75;5.45;;;;;;;12.19;100.00;99919.06;6019659;23;20363;-73
2023/10/14 06:49:41;;;;;;;5.05;4.53;;;;;;;12.98;100.00;100072.19;6052969;23;20025;-73
2023/10/14 06:52:11;;;;;;;5.28;4.68;;;;;;;13.27;100.00;100121.94;6051740;23;20084;-73
2023/10/14 06:54:41;;;;;;;4.40;4.20;;;;;;;12.38;100.00;99981.72;6057059;23;20104;-73
2023/10/14 06:57:08;;;;;;;4.75;4.50;;;;;;;13.11;100.00;100095.84;6024360;23;20032;-74
2023/10/14 06:59:37;;;;;;;4.25;4.05;;;;;;;13.37;100.00;100138.81;6021965;23;20124;-74
2023/10/14 07:02:05;;;;;;;4.68;4.38;;;;;;;12.88;99.51;100045.69;5998453;23;20035;-74
2023/10/14 07:04:37;;;;;;;4.88;4.57;;;;;;;13.03;99.03;100066.59;6028915;23;20080;-72
2023/10/14 07:07:08;;;;;;;5.60;4.55;;;;;;;13.33;97.81;100084.63;6027181;23;20303;-73
2023/10/14 07:09:37;;;;;;;5.00;4.40;;;;;;;13.55;97.39;100120.78;6023748;23;20187;-73
2023/10/14 07:12:13;;;;;;;6.53;4.75;;;;;;;13.38;97.61;100108.00;6045429;23;20032;-73
2023/10/14 07:14:40;;;;;;;4.72;4.30;;;;;;;13.55;97.40;100141.88;6053360;23;20394;-73
2023/10/14 07:17:07;;;;;;;5.38;4.78;;;;;;;13.52;96.96;100119.22;6021366;23;20059;-73
2023/10/14 07:19:35;;;;;;;5.63;4.93;;;;;;;13.51;95.65;100108.78;6055428;23;20014;-74
2023/10/14 07:22:07;;;;;;;16.95;4.93;;;;;;;13.28;95.32;100060.38;6043776;23;20038;-75
2023/10/14 07:24:37;;;;;;;5.78;4.22;;;;;;;12.99;95.20;100005.41;6054176;23;20398;-72
2023/10/14 07:27:04;;;;;;;4.75;4.45;;;;;;;13.74;95.13;100133.44;6025071;23;20094;-72
2023/10/14 07:29:30;;;;;;;5.35;4.95;;;;;;;13.68;94.53;100126.84;6049668;23;20032;-72
2023/10/14 07:31:57;;;;;;;5.78;5.35;;;;;;;13.30;93.84;100040.06;5994475;23;20038;-72
2023/10/14 07:34:23;;;;;;;4.57;4.18;;;;;;;13.52;93.38;100092.84;6054236;23;20069;-73
2023/10/14 07:36:51;;;;;;;4.30;4.10;;;;;;;13.51;94.40;100091.19;6028138;23;20026;-72
2023/10/14 07:39:29;;;;;;;8.73;4.57;;;;;;;13.38;94.37;100090.41;6060388;23;20685;-73
2023/10/14 07:41:56;;;;;;;5.30;5.10;;;;;;;13.62;93.29;100105.38;6020659;23;20097;-74
2023/10/14 07:44:25;;;;;;;5.22;4.10;;;;;;;13.15;92.75;100008.59;6056264;23;20026;-74
2023/10/14 07:46:53;;;;;;;4.55;4.35;;;;;;;13.74;92.80;100121.09;6058308;23;20103;-72
2023/10/14 07:49:20;;;;;;;5.50;4.38;;;;;;;13.91;92.19;100140.09;6052432;23;20023;-72
2023/10/14 07:51:51;;;;;;;5.57;5.18;;;;;;;13.86;91.99;100119.34;6026806;23;20226;-75
2023/10/14 07:54:18;;;;;;;4.80;4.40;;;;;;;14.27;91.15;100175.22;6055881;23;20015;-72
2023/10/14 07:56:46;;;;;;;4.85;4.55;;;;;;;14.32;90.50;100152.78;6052888;23;20086;-74
2023/10/14 07:59:14;;;;;;;4.60;4.40;;;;;;;13.85;88.84;100059.66;6041275;23;20276;-73
2023/10/14 08:01:40;;;;;;;4.88;4.57;;;;;;;14.30;88.41;100159.97;6050483;23;20050;-73
2023/10/14 08:04:08;;;;;;;9.80;4.90;;;;;;;14.10;88.16;100132.47;6050889;23;20038;-73
2023/10/14 08:06:40;;;;;;;5.03;4.50;;;;;;;13.81;88.52;100089.00;6052518;23;20074;-74
2023/10/14 08:12:05;;;;;;;4.35;4.15;;;;;;;14.46;88.58;100198.41;6026203;23;20155;-73
2023/10/14 08:14:31;;;;;;;4.97;4.60;;;;;;;14.55;86.76;100148.38;6024653;23;20027;-73
2023/10/14 08:16:58;;;;;;;8.63;4.78;;;;;;;14.31;87.60;100166.09;6025723;23;20014;-73
2023/10/14 08:19:26;;;;;;;4.53;4.32;;;;;;;14.39;87.22;100154.97;6048145;23;20485;-73
2023/10/14 08:21:53;;;;;;;5.93;5.30;;;;;;;14.58;85.92;100168.47;6020825;23;20030;-74
2023/10/14 08:24:20;;;;;;;5.00;4.60;;;;;;;14.61;84.06;100128.59;6025820;23;20555;-73
2023/10/14 08:26:47;;;;;;;6.95;4.50;;;;;;;14.79;83.93;100146.59;6021496;23;20050;-73
2023/10/14 08:29:13;;;;;;;5.05;4.72;;;;;;;14.46;84.57;100111.28;6028293;23;20041;-73
2023/10/14 08:31:42;;;;;;;4.70;4.47;;;;;;;14.49;82.33;100092.56;6047139;23;20025;-72
2023/10/14 08:34:09;;;;;;;5.25;4.80;;;;;;;14.50;81.90;100110.09;6048633;23;20090;-73
2023/10/14 08:36:36;;;;;;;4.25;4.05;;;;;;;14.89;81.70;100129.06;6024547;23;20006;-73
2023/10/14 08:39:02;;;;;;;6.97;4.97;;;;;;;14.60;81.65;100119.00;6022756;23;20282;-73
2023/10/14 08:41:33;;;;;;;10.98;4.63;;;;;;;14.65;82.51;100185.50;6051409;23;20025;-72
2023/10/14 08:44:08;;;;;;;4.95;4.63;;;;;;;14.68;82.19;100163.31;5993457;23;20434;-72
2023/10/14 08:46:39;;;;;;;4.97;4.63;;;;;;;14.52;81.26;100143.34;6052030;23;20361;-73
2023/10/14 08:49:08;;;;;;;5.07;4.87;;;;;;;14.58;82.65;100160.53;6022711;23;20019;-72
2023/10/14 08:51:37;;;;;;;4.70;4.40;;;;;;;14.83;82.22;100195.59;6054619;23;20352;-72
2023/10/14 08:54:23;;;;;;;7.93;4.60;;;;;;;13.93;81.14;100046.72;6026302;23;20015;-73
2023/10/14 08:56:51;;;;;;;4.70;4.30;;;;;;;14.63;81.68;100161.00;6055761;23;20090;-72
2023/10/14 08:59:17;;;;;;;5.00;4.70;;;;;;;15.04;81.03;100186.00;6051839;23;20038;-73
2023/10/14 09:01:47;;;;;;;5.43;5.03;;;;;;;14.36;78.48;100040.72;6048363;23;20069;-73
2023/10/14 09:04:25;;;;;;;7.07;4.65;;;;;;;14.48;78.49;100097.00;6053946;23;20113;-73
2023/10/14 09:06:52;;;;;;;4.70;4.47;;;;;;;14.95;78.67;100177.00;6049323;23;20514;-72
2023/10/14 09:09:23;;;;;;;10.52;4.72;;;;;;;14.92;78.63;100160.53;6021431;23;20446;-72
2023/10/14 09:11:51;;;;;;;5.88;5.55;;;;;;;14.90;75.84;100099.06;6049069;23;20037;-72
2023/10/14 09:14:17;;;;;;;5.35;4.90;;;;;;;14.98;77.68;100170.63;6048056;23;20046;-75
2023/10/14 09:16:53;;;;;;;7.25;4.75;;;;;;;14.56;78.69;100154.53;6053741;23;20006;-72
2023/10/14 09:19:20;;;;;;;4.93;4.68;;;;;;;14.65;78.42;100176.75;6027250;23;20344;-75
2023/10/14 09:21:47;;;;;;;13.93;5.60;;;;;;;14.92;76.46;100165.81;6043463;23;20242;-72
2023/10/14 09:24:14;;;;;;;5.75;4.95;;;;;;;14.70;77.06;100156.09;6027119;23;20574;-73
2023/10/14 09:26:44;;;;;;;10.30;4.85;;;;;;;15.09;76.93;100209.41;6048294;23;20010;-72
2023/10/14 09:29:11;;;;;;;5.53;4.65;;;;;;;14.79;74.95;100102.53;6022843;23;20043;-75
2023/10/14 09:31:38;;;;;;;10.45;4.97;;;;;;;14.80;74.56;100075.16;6019563;23;20100;-72
2023/10/14 09:34:08;;;;;;;6.63;4.72;;;;;;;14.68;73.88;100028.63;6023605;23;20053;-73
2023/10/14 09:36:42;;;;;;;6.05;4.95;;;;;;;15.19;74.00;100109.06;5998033;23;20045;-73
2023/10/14 09:39:13;;;;;;;5.53;4.90;;;;;;;15.56;71.91;100096.34;6025688;23;20081;-73
2023/10/14 09:41:40;;;;;;;5.00;4.70;;;;;;;15.63;72.98;100141.63;6045344;23;20042;-73
2023/10/14 09:44:08;;;;;;;7.22;5.15;;;;;;;15.73;73.38;100172.50;6016031;23;20043;-73
2023/10/14 09:46:40;;;;;;;5.40;4.80;;;;;;;16.05;73.56;100235.16;6048835;23;20022;-74
2023/10/14 09:49:10;;;;;;;5.40;4.93;;;;;;;15.96;71.95;100114.22;6035360;23;20102;-73
2023/10/14 09:51:38;;;;;;;6.40;5.38;;;;;;;15.60;69.56;99980.56;6039675;23;20006;-76
2023/10/14 09:54:06;;;;;;;5.10;4.70;;;;;;;16.05;67.99;100031.34;5999657;23;20481;-74
2023/10/14 09:56:36;;;;;;;4.53;4.32;;;;;;;16.15;67.64;100040.19;6049552;23;20093;-73
2023/10/14 09:59:10;;;;;;;9.77;4.70;;;;;;;16.07;67.91;100040.00;6027300;23;20127;-73
2023/10/14 10:01:36;;;;;;;6.68;4.53;;;;;;;16.34;68.50;100092.41;6056731;23;20023;-73
2023/10/14 10:04:14;;;;;;;5.03;4.55;;;;;;;16.14;67.63;100016.50;6018209;23;20163;-74
2023/10/14 10:07:19;;;;;;;4.78;4.35;;;;;;;17.18;64.94;100048.03;6048698;23;20045;-75
2023/10/14 10:09:54;;;;;;;6.05;5.55;;;;;;;17.25;65.23;100087.09;6044816;23;20030;-74
2023/10/14 10:12:21;;;;;;;5.10;4.70;;;;;;;17.52;65.37;100144.81;6052442;23;20106;-74
2023/10/14 10:14:57;;;;;;;5.10;4.63;;;;;;;17.85;63.93;100088.81;6000610;23;20619;-73
2023/10/14 10:17:26;;;;;;;5.30;4.80;;;;;;;17.80;61.26;99902.56;6027811;23;20026;-74
2023/10/14 10:20:08;;;;;;;6.13;5.50;;;;;;;17.39;61.47;99888.75;6045412;23;20374;-75
2023/10/14 10:22:50;;;;;;;5.53;4.82;;;;;;;16.99;61.21;99879.22;6028765;23;20050;-72
2023/10/14 10:25:20;;;;;;;5.00;4.75;;;;;;;16.79;63.15;100034.69;6023081;23;20037;-73
2023/10/14 10:27:52;;;;;;;5.43;5.13;;;;;;;16.63;63.77;100085.56;6046271;23;20070;-73
2023/10/14 10:30:20;;;;;;;4.88;4.68;;;;;;;16.24;64.26;100043.03;6025219;23;20039;-73
2023/10/14 10:32:50;;;;;;;5.20;4.80;;;;;;;15.92;64.79;100083.69;5999190;23;20110;-73
2023/10/14 10:35:20;;;;;;;7.32;5.47;;;;;;;15.23;65.81;100052.34;6028926;23;20030;-73
2023/10/14 10:37:53;;;;;;;5.60;5.30;;;;;;;15.62;65.07;100095.81;6040334;23;20038;-74
2023/10/14 10:40:25;;;;;;;;;;;;;;;15.26;64.99;100033.59;6020430;23;20258;-75
2023/10/14 10:43:07;;;;;;;4.78;4.38;;;;;;;14.93;64.75;100038.88;6052921;23;19921;-75
2023/10/14 10:45:35;;;;;;;7.25;5.10;;;;;;;14.68;66.25;100110.47;6046557;23;20030;-74
2023/10/14 10:48:06;;;;;;;5.88;4.65;;;;;;;15.01;66.96;100161.59;6045116;23;20086;-72
2023/10/14 10:50:38;;;;;;;12.65;4.85;;;;;;;14.90;67.11;100179.16;5997091;23;20035;-74
2023/10/14 10:53:07;;;;;;;4.63;4.32;;;;;;;14.82;67.33;100193.94;6054013;23;20053;-74
2023/10/14 10:55:36;;;;;;;6.05;4.40;;;;;;;14.72;67.79;100194.63;6054132;23;20476;-74
2023/10/14 10:58:04;;;;;;;5.20;4.90;;;;;;;14.30;67.11;100116.91;6046035;23;20033;-74
2023/10/14 11:00:31;;;;;;;4.72;4.53;;;;;;;14.69;68.22;100231.88;6051662;23;20043;-74
2023/10/14 11:03:01;;;;;;;4.72;4.53;;;;;;;15.16;69.10;100306.59;6044820;23;20089;-74
2023/10/14 11:05:29;;;;;;;5.05;4.60;;;;;;;14.98;68.29;100233.22;6030287;23;20034;-74
2023/10/14 11:07:58;;;;;;;5.93;5.25;;;;;;;15.77;66.72;100263.06;6027898;23;20197;-74
2023/10/14 11:10:38;;;;;;;8.18;4.85;;;;;;;16.11;65.10;100216.13;6020604;23;20022;-73
2023/10/14 11:13:10;;;;;;;10.57;5.38;;;;;;;16.52;65.79;100275.41;6020156;23;20027;-74
2023/10/14 11:15:38;;;;;;;;;;;;;;;17.28;63.49;100222.09;6047021;23;20015;-75
2023/10/14 11:18:05;;;;;;;5.10;4.50;;;;;;;16.75;61.24;100013.75;6048786;23;20251;-74
2023/10/14 11:20:45;;;;;;;7.47;5.07;;;;;;;17.21;60.10;100026.53;6043656;23;20665;-73
2023/10/14 11:23:12;;;;;;;4.80;4.50;;;;;;;17.67;59.09;100014.34;6048835;23;20026;-74
2023/10/14 11:25:45;;;;;;;5.05;4.72;;;;;;;17.12;59.46;99976.03;6050271;23;20142;-74
2023/10/14 11:28:14;;;;;;;;;;;;;;;17.07;59.41;99995.97;6025398;23;20037;-74
2023/10/14 11:30:42;;;;;;;6.03;5.15;;;;;;;16.73;59.39;99970.66;6046748;23;20327;-74
2023/10/14 11:33:14;;;;;;;4.82;4.53;;;;;;;17.13;59.91;100086.41;6027946;23;20216;-75
2023/10/14 11:35:41;;;;;;;4.88;4.68;;;;;;;16.47;58.09;99867.03;6046638;23;20473;-74
2023/10/14 11:38:12;;;;;;;4.63;4.43;;;;;;;16.80;60.06;100069.03;6045857;23;20073;-75
2023/10/14 11:40:49;;;;;;;5.05;4.70;;;;;;;16.35;59.05;99971.44;6052284;23;20555;-73
2023/10/14 11:43:17;;;;;;;4.70;4.40;;;;;;;16.55;59.91;100084.41;6013703;23;20026;-74
2023/10/14 11:45:43;;;;;;;6.47;5.90;;;;;;;16.73;59.06;100087.25;6043360;23;20240;-73
2023/10/14 11:48:27;;;;;;;4.90;4.60;;;;;;;16.56;58.31;100032.28;6046299;23;20030;-73
2023/10/14 11:50:58;;;;;;;5.35;5.05;;;;;;;16.47;57.95;99986.22;6029042;23;20011;-73
2023/10/14 11:53:29;;;;;;;6.18;5.28;;;;;;;16.28;57.64;99994.13;6023102;23;20035;-73
2023/10/14 11:55:58;;;;;;;5.30;5.07;;;;;;;16.28;58.66;100100.88;6050976;23;20034;-73
2023/10/14 11:58:29;;;;;;;5.13;4.82;;;;;;;16.42;57.52;100045.91;6047725;23;20342;-73
2023/10/14 12:00:57;;;;;;;5.57;4.65;;;;;;;16.62;57.40;100049.41;6047033;23;20035;-73
2023/10/14 12:03:27;;;;;;;11.45;5.18;;;;;;;16.72;56.87;100051.16;6023645;23;20035;-74
2023/10/14 12:05:58;;;;;;;10.63;6.05;;;;;;;16.82;56.74;100074.19;6016799;23;20023;-72
2023/10/14 12:08:26;;;;;;;4.80;4.60;;;;;;;17.02;56.34;100080.38;6049527;23;20046;-73
2023/10/14 12:10:54;;;;;;;5.10;4.70;;;;;;;16.19;54.47;99860.75;5995726;23;20011;-73
2023/10/14 12:13:21;;;;;;;5.13;4.82;;;;;;;16.86;54.26;99972.25;6029872;23;20034;-74
2023/10/14 12:16:05;;;;;;;4.97;4.68;;;;;;;16.59;53.95;99979.00;6017960;23;20978;-73
2023/10/14 12:18:35;;;;;;;5.00;4.53;;;;;;;16.44;54.56;100025.41;6013399;23;20372;-74
2023/10/14 12:21:03;;;;;;;5.25;4.85;;;;;;;16.89;52.63;99966.66;6007061;23;20017;-73
2023/10/14 12:23:31;;;;;;;5.00;4.70;;;;;;;16.63;52.07;99911.53;6019168;23;20037;-74
2023/10/14 12:26:00;;;;;;;5.20;4.90;;;;;;;16.20;53.51;99967.50;6027887;23;20334;-73
2023/10/14 12:28:31;;;;;;;5.20;4.90;;;;;;;15.74;54.76;100007.53;6021742;23;20021;-73